Time;durP1;ratioP1;P1;durP2;ratioP2;P2;SDS_P1;SDS_P2;PMS_P1;PMS_P2;Temp;Humidity;BMP_temperature;BMP_pressure;BME280_temperature;BME280_humidity;BME280_pressure;Samples;Min_cycle;Max_cycle;Signal;HPM_P1;HPM_P2
2020/12/01 00:01:10;;;;;;;1.43;1.33;;;-0.10;98.00;;;;;;5073185;28;20260;-63
2020/12/01 00:03:39;;;;;;;2.87;1.50;;;0.10;98.00;;;;;;5074565;28;20886;-62
2020/12/01 00:06:06;;;;;;;3.03;2.27;;;0.10;98.00;;;;;;5073113;28;20460;-62
2020/12/01 00:08:34;;;;;;;2.03;1.63;;;0.00;98.00;;;;;;5073332;28;20542;-62
2020/12/01 00:11:00;;;;;;;1.20;1.00;;;0.10;98.00;;;;;;5072952;28;20207;-62
2020/12/01 00:13:27;;;;;;;1.73;1.42;;;0.10;98.00;;;;;;5074486;28;20504;-62
2020/12/01 00:15:53;;;;;;;1.33;1.33;;;0.00;98.00;;;;;;5072720;28;20734;-63
2020/12/01 00:18:20;;;;;;;1.88;1.77;;;-0.10;98.00;;;;;;5074252;28;20485;-62
2020/12/01 00:20:50;;;;;;;1.70;1.37;;;0.00;98.00;;;;;;5072894;28;20207;-64
2020/12/01 00:23:16;;;;;;;5.40;3.05;;;0.20;98.00;;;;;;5074286;28;20460;-62
2020/12/01 00:26:00;;;;;;;1.67;1.55;;;0.10;98.00;;;;;;5071747;28;20276;-64
2020/12/01 00:28:26;;;;;;;3.50;2.00;;;0.10;98.00;;;;;;5072696;28;20195;-62
2020/12/01 00:30:53;;;;;;;1.40;1.30;;;0.00;98.00;;;;;;5071386;28;20452;-62
2020/12/01 00:33:20;;;;;;;2.80;1.63;;;-0.10;98.00;;;;;;5074039;28;20231;-63
2020/12/01 00:35:47;;;;;;;8.63;4.25;;;-0.10;98.00;;;;;;5072126;28;20328;-62
2020/12/01 00:38:13;;;;;;;1.20;1.05;;;-0.10;98.00;;;;;;5074100;28;20547;-62
2020/12/01 00:40:39;;;;;;;1.83;1.73;;;-0.20;98.00;;;;;;5072225;28;20629;-62
2020/12/01 00:43:06;;;;;;;1.40;1.30;;;-0.20;98.00;;;;;;5072695;28;20483;-62
2020/12/01 00:45:33;;;;;;;1.85;1.77;;;-0.20;98.00;;;;;;5072683;28;20584;-62
2020/12/01 00:48:00;;;;;;;1.63;1.52;;;-0.20;98.00;;;;;;5073778;28;20646;-63
2020/12/01 00:50:27;;;;;;;1.75;1.65;;;-0.10;98.00;;;;;;5073808;28;20554;-62
2020/12/01 00:52:54;;;;;;;1.38;1.23;;;0.00;98.00;;;;;;5072145;28;20206;-62
2020/12/01 00:55:20;;;;;;;1.20;1.20;;;0.10;98.00;;;;;;5073748;28;20199;-64
2020/12/01 00:57:47;;;;;;;1.50;1.10;;;0.30;98.00;;;;;;5071885;28;20530;-62
2020/12/01 01:00:17;;;;;;;1.53;1.53;;;0.50;98.00;;;;;;5073707;28;20344;-62
2020/12/01 01:02:43;;;;;;;1.30;1.30;;;0.70;98.00;;;;;;5072043;28;20503;-62
2020/12/01 01:05:10;;;;;;;1.40;1.25;;;0.60;98.00;;;;;;5072268;28;20746;-62
2020/12/01 01:07:37;;;;;;;1.20;1.13;;;0.60;98.00;;;;;;5071809;28;20256;-62
2020/12/01 01:10:05;;;;;;;1.23;1.23;;;0.60;98.00;;;;;;5073501;28;20249;-62
2020/12/01 01:12:31;;;;;;;1.63;1.63;;;0.70;98.00;;;;;;5070303;28;20370;-62
2020/12/01 01:14:58;;;;;;;1.10;0.90;;;0.70;98.00;;;;;;5072966;28;20502;-62
2020/12/01 01:17:24;;;;;;;1.17;1.15;;;0.60;98.00;;;;;;5071440;28;20838;-63
2020/12/01 01:19:51;;;;;;;1.10;1.10;;;0.60;98.00;;;;;;5073383;28;20759;-64
2020/12/01 01:22:17;;;;;;;2.67;2.47;;;0.70;98.00;;;;;;5071914;28;20457;-62
2020/12/01 01:24:45;;;;;;;1.10;1.05;;;0.80;98.00;;;;;;5073602;28;20472;-62
2020/12/01 01:27:11;;;;;;;1.70;1.58;;;0.70;98.00;;;;;;5071666;28;20235;-62
2020/12/01 01:29:37;;;;;;;1.20;1.10;;;0.90;98.00;;;;;;5073557;28;20257;-62
2020/12/01 01:32:04;;;;;;;1.50;1.30;;;1.10;98.00;;;;;;5071749;28;21237;-63
2020/12/01 01:34:30;;;;;;;3.70;2.10;;;1.10;98.00;;;;;;5073154;28;20207;-62
2020/12/01 01:37:00;;;;;;;4.88;2.97;;;1.20;98.00;;;;;;5071329;28;20608;-62
2020/12/01 01:39:26;;;;;;;1.97;1.73;;;1.20;98.00;;;;;;5073199;28;20252;-62
2020/12/01 01:41:54;;;;;;;1.20;1.10;;;1.30;98.00;;;;;;5071328;28;20923;-62
2020/12/01 01:44:24;;;;;;;1.80;1.60;;;1.30;98.00;;;;;;5073096;28;20457;-62
2020/12/01 01:46:54;;;;;;;1.77;1.10;;;1.30;98.00;;;;;;5071315;28;20820;-62
2020/12/01 01:49:23;;;;;;;1.23;1.20;;;1.20;98.00;;;;;;5071999;28;20484;-62
2020/12/01 01:51:57;;;;;;;1.83;1.75;;;1.30;98.00;;;;;;5070839;28;20863;-62
2020/12/01 01:54:26;;;;;;;2.90;1.63;;;1.50;98.00;;;;;;5072783;28;20250;-63
2020/12/01 01:56:59;;;;;;;1.10;0.90;;;1.60;98.00;;;;;;5069308;28;20519;-63
2020/12/01 01:59:28;;;;;;;1.63;1.40;;;1.60;98.00;;;;;;5072521;28;20483;-63
2020/12/01 02:01:55;;;;;;;1.20;1.20;;;1.70;98.00;;;;;;5070346;28;20503;-62
2020/12/01 02:04:21;;;;;;;1.10;1.00;;;1.70;98.00;;;;;;5072363;28;20509;-63
2020/12/01 02:06:52;;;;;;;1.70;1.60;;;1.80;98.00;;;;;;5070741;28;20458;-63
2020/12/01 02:09:21;;;;;;;1.37;1.27;;;1.80;98.00;;;;;;5072508;28;20999;-63
2020/12/01 02:11:49;;;;;;;1.10;1.00;;;1.70;98.00;;;;;;5070941;28;20455;-63
2020/12/01 02:14:20;;;;;;;1.10;1.00;;;1.80;98.00;;;;;;5072338;28;20459;-63
2020/12/01 02:16:49;;;;;;;1.53;1.30;;;1.80;98.00;;;;;;5070513;28;20941;-63
2020/12/01 02:19:19;;;;;;;2.33;1.67;;;1.80;98.00;;;;;;5072313;28;20515;-62
2020/12/01 02:21:46;;;;;;;2.13;1.20;;;1.90;98.00;;;;;;5070699;28;21463;-62
2020/12/01 02:24:18;;;;;;;1.50;1.40;;;1.90;98.00;;;;;;5072086;28;20938;-62
2020/12/01 02:26:49;;;;;;;2.77;1.60;;;1.90;98.00;;;;;;5070111;28;20903;-63
2020/12/01 02:29:20;;;;;;;1.87;1.57;;;1.90;98.00;;;;;;5071647;28;20529;-62
2020/12/01 02:31:48;;;;;;;1.30;1.30;;;1.70;98.00;;;;;;5070117;28;21071;-63
2020/12/01 02:34:17;;;;;;;1.20;1.20;;;1.60;98.00;;;;;;5071750;28;20525;-62
2020/12/01 02:36:44;;;;;;;1.10;0.90;;;1.50;98.00;;;;;;5071213;28;20509;-64
2020/12/01 02:39:12;;;;;;;1.63;1.43;;;1.50;98.00;;;;;;5071693;28;21009;-62
2020/12/01 02:41:39;;;;;;;1.90;1.33;;;1.50;98.00;;;;;;5071723;28;20456;-62
2020/12/01 02:44:07;;;;;;;1.10;1.07;;;1.50;98.00;;;;;;5070170;28;20455;-62
2020/12/01 02:46:36;;;;;;;1.43;1.37;;;1.40;98.00;;;;;;5071716;28;20452;-62
2020/12/01 02:49:04;;;;;;;1.17;1.00;;;1.40;98.00;;;;;;5069306;28;20482;-62
2020/12/01 02:51:30;;;;;;;1.20;1.03;;;1.40;98.00;;;;;;5071745;28;20448;-62
2020/12/01 02:53:57;;;;;;;1.10;1.00;;;1.40;98.00;;;;;;5070052;28;20456;-62
2020/12/01 02:56:24;;;;;;;1.73;1.63;;;1.40;98.00;;;;;;5071651;28;20459;-62
2020/12/01 02:58:51;;;;;;;1.60;1.50;;;1.40;98.00;;;;;;5069634;28;21099;-62
2020/12/01 03:01:19;;;;;;;1.10;0.90;;;1.50;98.00;;;;;;5071805;28;20485;-62
2020/12/01 03:03:46;;;;;;;1.33;1.30;;;1.50;98.00;;;;;;5069274;28;20463;-62
2020/12/01 03:06:14;;;;;;;1.33;1.10;;;1.60;98.00;;;;;;5070585;28;20443;-62
2020/12/01 03:08:41;;;;;;;1.20;1.20;;;1.50;98.00;;;;;;5069997;28;20459;-62
2020/12/01 03:11:09;;;;;;;2.43;1.70;;;1.50;98.00;;;;;;5071672;28;20491;-63
2020/12/01 03:13:35;;;;;;;1.53;1.10;;;1.40;98.00;;;;;;5069771;28;20448;-62
2020/12/01 03:16:06;;;;;;;1.50;1.23;;;1.40;98.00;;;;;;5071634;28;20513;-62
2020/12/01 03:18:36;;;;;;;1.67;1.57;;;1.50;98.00;;;;;;5070301;28;20550;-63
2020/12/01 03:21:03;;;;;;;1.10;1.00;;;1.40;98.00;;;;;;5070349;28;20479;-62
2020/12/01 03:23:31;;;;;;;1.40;1.30;;;1.40;98.00;;;;;;5069981;28;20449;-62
2020/12/01 03:25:58;;;;;;;1.43;1.33;;;1.40;98.00;;;;;;5071515;28;20455;-61
2020/12/01 03:28:26;;;;;;;1.80;1.50;;;1.40;98.00;;;;;;5069901;28;20545;-63
2020/12/01 03:30:53;;;;;;;1.43;1.33;;;1.40;98.00;;;;;;5071203;28;20492;-61
2020/12/01 03:33:20;;;;;;;1.53;1.43;;;1.40;98.00;;;;;;5069772;28;20455;-62
2020/12/01 03:35:48;;;;;;;1.10;1.10;;;1.40;98.00;;;;;;5071089;28;20463;-62
2020/12/01 03:38:14;;;;;;;1.10;1.00;;;1.40;98.00;;;;;;5069583;28;20455;-63
2020/12/01 03:40:41;;;;;;;1.10;1.00;;;1.50;98.00;;;;;;5071165;28;20523;-63
2020/12/01 03:43:08;;;;;;;6.13;1.67;;;1.50;98.00;;;;;;5069444;28;20460;-62
2020/12/01 03:45:35;;;;;;;1.60;1.50;;;1.60;98.00;;;;;;5071226;28;20447;-62
2020/12/01 03:48:01;;;;;;;1.10;0.90;;;1.60;98.00;;;;;;5069665;28;20454;-62
2020/12/01 03:50:28;;;;;;;1.77;1.50;;;1.60;98.00;;;;;;5071017;28;20454;-62
2020/12/01 03:52:56;;;;;;;1.30;1.30;;;1.70;98.00;;;;;;5069286;28;20509;-61
2020/12/01 03:55:24;;;;;;;1.10;1.00;;;1.90;98.00;;;;;;5071081;28;20951;-62
2020/12/01 03:57:51;;;;;;;1.80;1.20;;;1.90;98.00;;;;;;5067784;28;20460;-62
2020/12/01 04:00:21;;;;;;;1.67;1.57;;;1.90;98.00;;;;;;5072190;28;20884;-62
2020/12/01 04:02:49;;;;;;;1.10;1.00;;;2.00;98.00;;;;;;5073177;28;20451;-62
2020/12/01 04:05:17;;;;;;;1.87;1.43;;;1.90;98.00;;;;;;5074591;28;20486;-62
2020/12/01 04:07:45;;;;;;;1.23;1.20;;;2.00;98.00;;;;;;5074407;28;20472;-62
2020/12/01 04:10:15;;;;;;;1.43;1.37;;;1.80;98.00;;;;;;5072959;28;20501;-63
2020/12/01 04:12:41;;;;;;;1.10;1.00;;;1.80;98.00;;;;;;5074256;28;20510;-62
2020/12/01 04:15:13;;;;;;;1.20;1.10;;;1.70;98.00;;;;;;5072839;28;20464;-62
2020/12/01 04:17:40;;;;;;;1.10;1.10;;;1.70;98.00;;;;;;5074621;28;20447;-62
2020/12/01 04:20:08;;;;;;;2.50;1.47;;;1.70;98.00;;;;;;5072516;28;20578;-62
2020/12/01 04:22:35;;;;;;;1.10;1.00;;;1.70;98.00;;;;;;5074051;28;20937;-62
2020/12/01 04:25:03;;;;;;;1.23;1.20;;;1.70;98.00;;;;;;5072493;28;20451;-62
2020/12/01 04:27:30;;;;;;;1.30;1.20;;;1.90;98.00;;;;;;5073194;28;20516;-62
2020/12/01 04:29:57;;;;;;;2.70;1.20;;;2.10;98.00;;;;;;5071125;28;20462;-62
2020/12/01 04:32:23;;;;;;;1.10;0.90;;;2.20;98.00;;;;;;5072571;28;20513;-62
2020/12/01 04:34:51;;;;;;;1.20;1.10;;;2.30;98.00;;;;;;5072129;28;20456;-63
2020/12/01 04:37:18;;;;;;;1.10;1.00;;;2.40;98.00;;;;;;5074235;28;20452;-62
2020/12/01 04:39:45;;;;;;;1.10;0.90;;;2.50;98.00;;;;;;5072505;28;20483;-62
2020/12/01 04:42:16;;;;;;;1.10;1.00;;;2.50;98.00;;;;;;5073624;28;20452;-62
2020/12/01 04:44:51;;;;;;;1.10;1.00;;;2.50;98.00;;;;;;5072196;28;20449;-62
2020/12/01 04:47:22;;;;;;;1.10;0.90;;;2.60;98.00;;;;;;5073845;28;20459;-62
2020/12/01 04:49:56;;;;;;;1.10;1.00;;;2.60;98.00;;;;;;5072441;28;20516;-62
2020/12/01 04:53:13;;;;;;;1.10;1.00;;;2.60;98.00;;;;;;5073382;28;20537;-62
2020/12/01 04:56:17;;;;;;;1.63;1.33;;;2.60;98.00;;;;;;4993997;28;20462;-63
2020/12/01 04:59:18;;;;;;;1.10;1.07;;;2.70;98.00;;;;;;4993957;28;20465;-62
2020/12/01 05:02:17;;;;;;;1.10;1.00;;;2.80;98.00;;;;;;5065320;28;20490;-62
2020/12/01 05:04:52;;;;;;;1.40;1.20;;;2.80;98.00;;;;;;5072165;28;20457;-62
2020/12/01 05:07:30;;;;;;;1.10;1.00;;;2.80;98.00;;;;;;5073622;28;20459;-62
2020/12/01 05:09:59;;;;;;;1.10;1.00;;;2.80;98.00;;;;;;5071771;28;20451;-62
2020/12/01 05:12:32;;;;;;;1.10;1.00;;;2.70;98.00;;;;;;5073214;28;20883;-62
2020/12/01 05:15:02;;;;;;;1.10;1.00;;;2.60;98.00;;;;;;5070700;28;20478;-62
2020/12/01 05:17:56;;;;;;;1.53;1.20;;;2.50;98.00;;;;;;5073392;28;20456;-63
2020/12/01 05:20:24;;;;;;;1.23;1.20;;;2.30;98.00;;;;;;5071595;28;20492;-62
2020/12/01 05:22:53;;;;;;;1.10;1.03;;;2.20;98.00;;;;;;5073263;28;20972;-62
2020/12/01 05:25:23;;;;;;;1.10;1.00;;;2.10;98.00;;;;;;5071549;28;20508;-62
2020/12/01 05:27:50;;;;;;;1.30;1.20;;;2.10;98.00;;;;;;5073090;28;20516;-63
2020/12/01 05:30:23;;;;;;;1.10;0.90;;;2.10;98.00;;;;;;5071390;28;20509;-62
2020/12/01 05:32:55;;;;;;;1.10;0.90;;;2.10;98.00;;;;;;5073133;28;20493;-62
2020/12/01 05:35:27;;;;;;;1.57;1.47;;;2.10;98.00;;;;;;5071397;28;20514;-63
2020/12/01 05:38:00;;;;;;;3.40;1.60;;;2.10;98.00;;;;;;5072913;28;20475;-63
2020/12/01 05:40:30;;;;;;;1.10;1.00;;;2.10;98.00;;;;;;5071007;28;20545;-63
2020/12/01 05:42:56;;;;;;;1.90;1.27;;;2.10;98.00;;;;;;5072741;28;20490;-62
2020/12/01 05:45:27;;;;;;;1.10;1.00;;;2.20;98.00;;;;;;5069851;28;20452;-63
2020/12/01 05:48:10;;;;;;;1.40;1.20;;;2.20;98.00;;;;;;5072426;28;20480;-62
2020/12/01 05:50:47;;;;;;;1.10;1.00;;;2.10;98.00;;;;;;5070662;28;20987;-62
2020/12/01 05:53:15;;;;;;;1.30;1.27;;;2.10;98.00;;;;;;5072287;28;20954;-63
2020/12/01 05:55:46;;;;;;;1.10;0.90;;;2.00;98.00;;;;;;5070598;28;21024;-63
2020/12/01 05:58:13;;;;;;;1.60;1.10;;;1.90;98.00;;;;;;5072308;28;20463;-63
2020/12/01 06:00:42;;;;;;;1.40;1.30;;;1.90;98.00;;;;;;5070574;28;20484;-63
2020/12/01 06:03:27;;;;;;;1.10;1.10;;;2.00;98.00;;;;;;5072272;28;20892;-63
2020/12/01 06:05:58;;;;;;;5.63;1.63;;;2.00;98.00;;;;;;5070412;28;20514;-62
2020/12/01 06:08:38;;;;;;;1.20;1.10;;;2.00;98.00;;;;;;5072263;28;20444;-63
2020/12/01 06:11:21;;;;;;;1.30;1.20;;;2.10;98.00;;;;;;5070653;28;20788;-63
2020/12/01 06:13:48;;;;;;;1.10;1.00;;;2.00;98.00;;;;;;5072061;28;20510;-63
2020/12/01 06:16:29;;;;;;;1.10;0.90;;;1.90;98.00;;;;;;5070634;28;20449;-62
2020/12/01 06:19:02;;;;;;;1.10;0.90;;;1.80;98.00;;;;;;5071860;28;21202;-63
2020/12/01 06:22:14;;;;;;;1.63;1.33;;;1.80;98.00;;;;;;5069142;28;20484;-62
2020/12/01 06:25:23;;;;;;;1.10;1.00;;;1.80;98.00;;;;;;5071838;28;20451;-62
2020/12/01 06:28:21;;;;;;;1.40;1.10;;;1.80;98.00;;;;;;5033362;28;20457;-62
2020/12/01 06:31:15;;;;;;;1.10;1.00;;;1.80;98.00;;;;;;5070178;28;20455;-63
2020/12/01 06:34:33;;;;;;;1.70;1.20;;;1.70;98.00;;;;;;5070864;28;20460;-62
2020/12/01 06:37:23;;;;;;;1.10;1.00;;;1.70;98.00;;;;;;5070205;28;20451;-62
2020/12/01 06:40:06;;;;;;;1.10;0.90;;;1.70;98.00;;;;;;5072005;28;20519;-63
2020/12/01 06:42:40;;;;;;;1.43;1.37;;;1.60;98.00;;;;;;5071764;28;20859;-62
2020/12/01 06:45:26;;;;;;;5.27;1.93;;;1.70;98.00;;;;;;5069469;28;20466;-62
2020/12/01 06:48:04;;;;;;;1.30;1.23;;;1.80;98.00;;;;;;5070876;28;20501;-63
2020/12/01 06:50:31;;;;;;;1.20;1.10;;;1.90;98.00;;;;;;5069319;28;20483;-63
2020/12/01 06:53:01;;;;;;;1.10;0.90;;;1.90;98.00;;;;;;5071969;28;21016;-62
2020/12/01 06:55:47;;;;;;;1.10;1.07;;;1.90;98.00;;;;;;5070411;28;20471;-62
2020/12/01 06:58:35;;;;;;;1.10;0.90;;;1.90;98.00;;;;;;5071732;28;20464;-63
2020/12/01 07:01:08;;;;;;;1.10;1.10;;;2.00;98.00;;;;;;5069600;28;20524;-63
2020/12/01 07:03:35;;;;;;;1.10;0.90;;;2.10;98.00;;;;;;5071771;28;20796;-62
2020/12/01 07:06:13;;;;;;;1.10;1.00;;;2.10;98.00;;;;;;5069406;28;20460;-63
2020/12/01 07:08:40;;;;;;;1.10;1.00;;;2.10;98.00;;;;;;5071447;28;20483;-63
2020/12/01 07:11:12;;;;;;;1.70;1.60;;;2.10;98.00;;;;;;5069704;28;21098;-62
2020/12/01 07:13:48;;;;;;;1.40;1.10;;;2.10;98.00;;;;;;5071534;28;20464;-63
2020/12/01 07:16:29;;;;;;;1.10;0.97;;;2.00;98.00;;;;;;5069572;28;20532;-62
2020/12/01 07:18:59;;;;;;;1.20;1.20;;;2.00;98.00;;;;;;5071586;28;20482;-62
2020/12/01 07:21:42;;;;;;;1.10;0.90;;;2.00;98.00;;;;;;5069988;28;20487;-63
2020/12/01 07:24:23;;;;;;;2.27;1.37;;;2.00;98.00;;;;;;5071326;28;20556;-63
2020/12/01 07:26:56;;;;;;;7.17;1.70;;;2.00;98.00;;;;;;5069722;28;20460;-63
2020/12/01 07:29:42;;;;;;;1.60;1.50;;;2.00;98.00;;;;;;5071443;28;20456;-62
2020/12/01 07:32:14;;;;;;;1.20;1.17;;;2.00;98.00;;;;;;5069677;28;20935;-62
2020/12/01 07:34:41;;;;;;;1.93;1.30;;;2.00;98.00;;;;;;5073450;28;20509;-63
2020/12/01 07:37:38;;;;;;;1.20;1.20;;;2.00;98.00;;;;;;5073859;28;20947;-63
2020/12/01 07:40:07;;;;;;;2.47;1.50;;;2.10;98.00;;;;;;5066388;28;20587;-62
2020/12/01 07:42:37;;;;;;;3.43;1.83;;;2.10;98.00;;;;;;5073825;28;20444;-63
2020/12/01 07:45:13;;;;;;;1.50;1.20;;;2.20;98.00;;;;;;5075033;28;20935;-62
2020/12/01 07:47:40;;;;;;;1.20;1.10;;;2.20;98.00;;;;;;5073461;28;20508;-62
2020/12/01 07:50:14;;;;;;;1.40;1.37;;;2.20;98.00;;;;;;5075029;28;20460;-62
2020/12/01 07:52:44;;;;;;;1.10;0.90;;;2.20;98.00;;;;;;5073292;28;20473;-62
2020/12/01 07:55:20;;;;;;;2.03;1.50;;;2.20;98.00;;;;;;5074781;28;20452;-63
2020/12/01 07:57:57;;;;;;;1.20;1.20;;;2.30;98.00;;;;;;5073429;28;20823;-63
2020/12/01 08:00:25;;;;;;;2.33;1.73;;;2.30;98.00;;;;;;5074792;28;20488;-62
2020/12/01 08:03:00;;;;;;;1.40;1.20;;;2.30;98.00;;;;;;5073178;28;20865;-62
2020/12/01 08:05:27;;;;;;;2.13;1.93;;;2.30;98.00;;;;;;5074908;28;20452;-62
2020/12/01 08:07:55;;;;;;;3.13;2.40;;;2.30;98.00;;;;;;5071469;28;20478;-62
2020/12/01 08:10:23;;;;;;;1.10;1.00;;;2.30;98.00;;;;;;5074575;28;20520;-62
2020/12/01 08:12:53;;;;;;;1.93;1.87;;;2.40;98.00;;;;;;5073039;28;20456;-63
2020/12/01 08:15:22;;;;;;;1.30;1.10;;;2.40;98.00;;;;;;5074704;28;20991;-62
2020/12/01 08:17:51;;;;;;;2.23;1.93;;;2.60;98.00;;;;;;5072633;28;21027;-61
2020/12/01 08:20:20;;;;;;;1.43;1.23;;;2.60;98.00;;;;;;5074339;28;20516;-61
2020/12/01 08:23:00;;;;;;;1.20;1.20;;;2.50;98.00;;;;;;5072709;28;20484;-62
2020/12/01 08:25:29;;;;;;;1.10;1.10;;;2.20;98.00;;;;;;5074360;28;20456;-63
2020/12/01 08:28:05;;;;;;;1.60;1.43;;;2.80;98.00;;;;;;5072612;28;20514;-61
2020/12/01 08:30:46;;;;;;;1.70;1.60;;;2.80;98.00;;;;;;5073919;28;20444;-61
2020/12/01 08:33:30;;;;;;;1.30;1.20;;;2.80;98.00;;;;;;5072583;28;20474;-62
2020/12/01 08:36:04;;;;;;;5.73;2.53;;;2.70;98.00;;;;;;5074216;28;20445;-61
2020/12/01 08:38:59;;;;;;;1.70;1.50;;;2.70;98.00;;;;;;5071173;28;20510;-62
2020/12/01 08:41:38;;;;;;;1.10;1.00;;;2.50;98.00;;;;;;5073908;28;20606;-63
2020/12/01 08:44:12;;;;;;;1.10;0.90;;;2.30;98.00;;;;;;5073808;28;20460;-62
2020/12/01 08:46:45;;;;;;;1.37;1.33;;;2.30;98.00;;;;;;5070919;28;20915;-61
2020/12/01 08:49:23;;;;;;;1.30;1.20;;;2.30;98.00;;;;;;5073618;28;20453;-61
2020/12/01 08:51:54;;;;;;;3.07;1.77;;;2.30;98.00;;;;;;5071729;28;20539;-64
2020/12/01 08:54:24;;;;;;;1.13;1.00;;;2.30;98.00;;;;;;5073464;28;20449;-62
2020/12/01 08:57:15;;;;;;;1.30;1.17;;;2.30;98.00;;;;;;5071620;28;20461;-62
2020/12/01 08:59:46;;;;;;;1.10;1.00;;;2.50;98.00;;;;;;5073485;28;21175;-62
2020/12/01 09:02:16;;;;;;;2.10;1.50;;;2.70;98.00;;;;;;5071516;28;20474;-62
2020/12/01 09:04:43;;;;;;;2.70;1.57;;;2.60;98.00;;;;;;5073123;28;20465;-64
2020/12/01 09:07:25;;;;;;;1.37;1.27;;;2.50;98.00;;;;;;5071336;28;20456;-62
2020/12/01 09:09:54;;;;;;;1.50;1.30;;;2.40;98.00;;;;;;5073356;28;20452;-60
2020/12/01 09:12:30;;;;;;;1.40;1.23;;;2.50;98.00;;;;;;5071557;28;21320;-62
2020/12/01 09:15:05;;;;;;;1.70;1.60;;;2.50;98.00;;;;;;5072397;28;20451;-61
2020/12/01 09:17:41;;;;;;;1.83;1.73;;;2.60;98.00;;;;;;5071226;28;20452;-61
2020/12/01 09:20:28;;;;;;;1.47;1.43;;;2.60;98.00;;;;;;5072723;28;20490;-62
2020/12/01 09:23:07;;;;;;;1.10;1.10;;;2.50;98.00;;;;;;5070809;28;20440;-64
2020/12/01 09:25:36;;;;;;;1.33;1.27;;;2.50;98.00;;;;;;5072516;28;20459;-63
2020/12/01 09:28:11;;;;;;;1.50;1.10;;;2.60;98.00;;;;;;5070989;28;20444;-63
2020/12/01 09:30:40;;;;;;;3.87;2.33;;;2.70;98.00;;;;;;5072771;28;20452;-62
2020/12/01 09:33:10;;;;;;;1.20;1.20;;;2.70;98.00;;;;;;5070839;28;20456;-62
2020/12/01 09:35:38;;;;;;;1.97;1.23;;;2.80;98.00;;;;;;5072451;28;20513;-62
2020/12/01 09:38:05;;;;;;;1.10;0.90;;;2.70;98.00;;;;;;5070986;28;20509;-63
2020/12/01 09:40:33;;;;;;;1.80;1.70;;;2.70;98.00;;;;;;5072425;28;20541;-62
2020/12/01 09:43:08;;;;;;;1.10;1.00;;;2.70;98.00;;;;;;5070840;28;20984;-63
2020/12/01 09:45:36;;;;;;;1.10;1.00;;;2.70;98.00;;;;;;5072261;28;20522;-64
2020/12/01 09:48:07;;;;;;;1.20;1.10;;;2.60;98.00;;;;;;5069583;28;20468;-62
2020/12/01 09:50:36;;;;;;;1.10;0.90;;;2.60;98.00;;;;;;5071925;28;20483;-63
2020/12/01 09:53:22;;;;;;;2.43;1.83;;;2.70;98.00;;;;;;5070509;28;20461;-64
2020/12/01 09:56:09;;;;;;;1.20;1.10;;;2.70;98.00;;;;;;5071872;28;20456;-66
2020/12/01 10:09:39;;;;;;;1.27;1.23;;;2.80;98.00;;;;;;5069980;28;20822;-65
2020/12/01 10:12:16;;;;;;;1.20;1.20;;;2.80;98.00;;;;;;5071892;28;20448;-64
2020/12/01 10:25:55;;;;;;;1.37;1.33;;;2.70;98.00;;;;;;5071548;28;20846;-64
2020/12/01 10:34:21;;;;;;;1.40;1.23;;;2.70;98.00;;;;;;5070015;28;20478;-63
2020/12/01 10:36:52;;;;;;;3.83;1.67;;;2.80;98.00;;;;;;5071462;28;20448;-63
2020/12/01 10:39:18;;;;;;;1.47;1.40;;;2.80;98.00;;;;;;5069765;28;20513;-64
2020/12/01 10:41:46;;;;;;;1.20;1.17;;;2.80;98.00;;;;;;5071478;28;20489;-64
2020/12/01 10:44:12;;;;;;;1.10;1.10;;;3.00;98.00;;;;;;5069430;28;21029;-66
2020/12/01 10:46:39;;;;;;;1.20;1.03;;;3.00;98.00;;;;;;5071665;28;20456;-64
2020/12/01 10:49:06;;;;;;;1.70;1.20;;;3.00;98.00;;;;;;5069923;28;20453;-64
2020/12/01 10:51:33;;;;;;;1.10;1.00;;;2.90;98.00;;;;;;5071710;28;20455;-64
2020/12/01 10:54:00;;;;;;;1.40;1.30;;;3.10;98.00;;;;;;5068533;28;20449;-64
2020/12/01 10:56:26;;;;;;;1.10;1.07;;;3.10;98.00;;;;;;5071038;28;20526;-64
2020/12/01 10:58:54;;;;;;;2.07;1.33;;;3.10;98.00;;;;;;5069443;28;20510;-64
2020/12/01 11:01:20;;;;;;;1.10;1.00;;;3.00;98.00;;;;;;5071236;28;20546;-63
2020/12/01 11:03:47;;;;;;;1.50;1.47;;;3.00;98.00;;;;;;5069543;28;20502;-64
2020/12/01 11:06:13;;;;;;;2.13;1.67;;;2.90;98.00;;;;;;5070811;28;20453;-64
2020/12/01 11:08:40;;;;;;;1.37;1.37;;;2.90;98.00;;;;;;5069445;28;20453;-64
2020/12/01 11:11:07;;;;;;;1.50;1.33;;;2.90;98.00;;;;;;5071299;28;20836;-65
2020/12/01 11:13:33;;;;;;;3.20;1.60;;;2.90;98.00;;;;;;5069680;28;20449;-64
2020/12/01 11:16:01;;;;;;;1.20;1.10;;;2.90;98.00;;;;;;5071038;28;20486;-65
2020/12/01 11:18:27;;;;;;;1.87;1.30;;;2.80;98.00;;;;;;5069945;28;20617;-64
2020/12/01 11:20:54;;;;;;;1.10;0.90;;;2.80;98.00;;;;;;5069565;28;20557;-65
2020/12/01 11:23:20;;;;;;;1.20;1.20;;;2.90;98.00;;;;;;5069918;28;20460;-64
2020/12/01 11:25:47;;;;;;;2.07;1.97;;;2.90;98.00;;;;;;5069168;28;20506;-64
2020/12/01 11:28:13;;;;;;;1.20;1.10;;;3.00;98.00;;;;;;5069338;28;20480;-64
2020/12/01 11:30:40;;;;;;;2.80;1.23;;;3.00;98.00;;;;;;5069521;28;20453;-63
2020/12/01 11:33:07;;;;;;;1.17;1.10;;;3.10;98.00;;;;;;5069592;28;20850;-63
2020/12/01 11:35:34;;;;;;;1.40;1.13;;;3.20;98.00;;;;;;5068847;28;20467;-62
2020/12/01 11:38:00;;;;;;;1.80;1.50;;;3.10;98.00;;;;;;5070601;28;20453;-63
2020/12/01 11:40:27;;;;;;;2.27;2.03;;;3.00;98.00;;;;;;5069004;28;20492;-66
2020/12/01 11:42:53;;;;;;;2.67;1.83;;;3.00;98.00;;;;;;5070888;28;20455;-63
2020/12/01 11:45:20;;;;;;;1.17;1.03;;;3.00;98.00;;;;;;5069155;28;20460;-63
2020/12/01 11:47:47;;;;;;;1.47;1.43;;;3.10;98.00;;;;;;5070870;28;20561;-64
2020/12/01 11:50:15;;;;;;;2.03;1.50;;;3.10;98.00;;;;;;5069077;28;20480;-63
2020/12/01 11:52:41;;;;;;;2.20;1.37;;;3.10;98.00;;;;;;5069870;28;20460;-63
2020/12/01 11:55:09;;;;;;;1.70;1.60;;;3.20;98.00;;;;;;5068784;28;20486;-64
2020/12/01 11:57:35;;;;;;;2.43;1.67;;;3.20;98.00;;;;;;5070631;28;20457;-64
2020/12/01 12:00:02;;;;;;;1.30;1.27;;;3.10;98.00;;;;;;5068918;28;20449;-64
2020/12/01 12:02:28;;;;;;;1.83;1.77;;;3.00;98.00;;;;;;5070829;28;20527;-63
2020/12/01 12:04:55;;;;;;;1.10;0.90;;;2.90;98.00;;;;;;5068752;28;20502;-63
2020/12/01 12:07:23;;;;;;;1.67;1.43;;;2.90;98.00;;;;;;5070743;28;20461;-63
2020/12/01 12:09:50;;;;;;;6.53;1.53;;;2.90;98.00;;;;;;5069029;28;21275;-66
2020/12/01 12:12:17;;;;;;;1.30;1.10;;;2.90;98.00;;;;;;5070505;28;20467;-64
2020/12/01 12:14:43;;;;;;;1.97;1.83;;;2.90;98.00;;;;;;5068748;28;20452;-63
2020/12/01 12:17:10;;;;;;;2.40;1.73;;;2.90;98.00;;;;;;5070637;28;20494;-63
2020/12/01 12:19:36;;;;;;;1.40;1.30;;;2.90;98.00;;;;;;5069646;28;20480;-66
2020/12/01 12:22:03;;;;;;;1.90;1.37;;;2.90;98.00;;;;;;5072536;28;20483;-64
2020/12/01 12:24:30;;;;;;;1.17;1.10;;;2.90;98.00;;;;;;5073845;28;20518;-63
2020/12/01 12:26:57;;;;;;;1.50;1.40;;;2.90;98.00;;;;;;5072225;28;20870;-63
2020/12/01 12:29:23;;;;;;;2.33;1.90;;;3.00;98.00;;;;;;5074039;28;20476;-64
2020/12/01 12:31:50;;;;;;;1.60;1.40;;;3.00;98.00;;;;;;5072530;28;20479;-63
2020/12/01 12:34:17;;;;;;;1.20;1.10;;;3.00;98.00;;;;;;5074052;28;20445;-63
2020/12/01 12:36:45;;;;;;;2.47;1.50;;;3.00;98.00;;;;;;5072362;28;20943;-62
2020/12/01 12:39:12;;;;;;;1.20;1.10;;;3.00;98.00;;;;;;5073661;28;20481;-63
2020/12/01 12:41:39;;;;;;;2.07;1.77;;;3.00;98.00;;;;;;5071416;28;20526;-62
2020/12/01 12:44:06;;;;;;;1.10;1.00;;;3.00;98.00;;;;;;5073169;28;20453;-62
2020/12/01 12:46:33;;;;;;;3.53;3.00;;;3.00;98.00;;;;;;5070691;28;20828;-62
2020/12/01 12:48:59;;;;;;;1.40;1.20;;;3.00;98.00;;;;;;5073864;28;20467;-62
2020/12/01 12:51:27;;;;;;;1.57;1.47;;;3.00;98.00;;;;;;5071936;28;20453;-62
2020/12/01 12:53:54;;;;;;;1.30;1.20;;;3.00;98.00;;;;;;5073382;28;20461;-62
2020/12/01 12:56:22;;;;;;;1.63;1.63;;;3.10;98.00;;;;;;5071580;28;20453;-62
2020/12/01 12:58:52;;;;;;;2.90;2.10;;;3.10;98.00;;;;;;5073441;28;20448;-62
2020/12/01 13:01:18;;;;;;;2.93;1.37;;;3.20;98.00;;;;;;5071540;28;20487;-63
2020/12/01 13:03:45;;;;;;;4.43;1.80;;;3.30;98.00;;;;;;5071970;28;20445;-62
2020/12/01 13:06:12;;;;;;;6.27;2.00;;;3.40;98.00;;;;;;5070144;28;20540;-63
2020/12/01 13:08:39;;;;;;;1.53;1.50;;;3.40;98.00;;;;;;5073225;28;20492;-62
2020/12/01 13:11:07;;;;;;;1.83;1.50;;;3.20;98.00;;;;;;5071267;28;20456;-62
2020/12/01 13:13:46;;;;;;;2.03;1.50;;;3.20;98.00;;;;;;5073404;28;20460;-63
2020/12/01 13:16:14;;;;;;;5.33;2.23;;;3.20;98.00;;;;;;5071411;28;20513;-63
2020/12/01 13:18:41;;;;;;;2.50;1.50;;;3.20;98.00;;;;;;5073348;28;20460;-63
2020/12/01 13:21:08;;;;;;;1.67;1.37;;;3.30;98.00;;;;;;5071459;28;20622;-62
2020/12/01 13:23:36;;;;;;;3.77;2.37;;;3.20;98.00;;;;;;5073549;28;20549;-62
2020/12/01 13:26:02;;;;;;;1.57;1.47;;;3.30;98.00;;;;;;5066529;28;20546;-63
2020/12/01 13:28:29;;;;;;;2.07;1.90;;;3.20;98.00;;;;;;5072218;28;20449;-63
2020/12/01 13:30:55;;;;;;;1.60;1.50;;;3.20;98.00;;;;;;5069705;28;21028;-61
2020/12/01 13:33:22;;;;;;;1.73;1.73;;;3.20;98.00;;;;;;5071028;28;20478;-62
2020/12/01 13:35:49;;;;;;;1.20;1.00;;;3.30;98.00;;;;;;5071014;28;20460;-62
2020/12/01 13:38:16;;;;;;;1.73;1.37;;;3.20;98.00;;;;;;5072731;28;20506;-62
2020/12/01 13:40:42;;;;;;;1.67;1.63;;;3.10;98.00;;;;;;5071536;28;20485;-62
2020/12/01 13:43:09;;;;;;;1.10;1.10;;;3.10;98.00;;;;;;5073157;28;20544;-62
2020/12/01 13:45:35;;;;;;;1.30;1.10;;;3.10;98.00;;;;;;5072583;28;20457;-63